Time;durP1;ratioP1;P1;durP2;ratioP2;P2;SDS_P1;SDS_P2;PMS_P1;PMS_P2;Temp;Humidity;BMP_temperature;BMP_pressure;BME280_temperature;BME280_humidity;BME280_pressure;Samples;Min_cycle;Max_cycle;Signal;HPM_P1;HPM_P2
2022/02/06 00:00:20;;;;;;;9.45;2.13;;;;;;;;;;4953007;28;20061;-79
2022/02/06 00:02:48;;;;;;;11.40;3.80;;;;;;;;;;4944813;28;20067;-78
2022/02/06 00:05:15;;;;;;;9.35;2.28;;;;;;;;;;4955163;28;20031;-79
2022/02/06 00:07:41;;;;;;;8.25;2.10;;;;;;;;;;4951984;28;20045;-79
2022/02/06 00:10:07;;;;;;;10.40;2.00;;;;;;;;;;4949586;28;20091;-80
2022/02/06 00:12:34;;;;;;;13.50;2.42;;;;;;;;;;4950619;28;20118;-78
2022/02/06 00:15:00;;;;;;;12.38;2.45;;;;;;;;;;4952820;28;20031;-79
2022/02/06 00:17:32;;;;;;;7.22;1.50;;;;;;;;;;4951575;28;20028;-79
2022/02/06 00:19:58;;;;;;;11.23;2.00;;;;;;;;;;4947067;28;20083;-80
2022/02/06 00:22:39;;;;;;;8.38;2.00;;;;;;;;;;4967618;28;20097;-79
2022/02/06 00:27:43;;;;;;;9.35;2.45;;;;;;;;;;4949799;28;20095;-79
2022/02/06 00:33:07;;;;;;;7.88;2.08;;;;;;;;;;4964201;28;20059;-79
2022/02/06 00:43:23;;;;;;;9.60;2.00;;;;;;;;;;4946883;28;20027;-79
2022/02/06 00:45:49;;;;;;;10.73;2.60;;;;;;;;;;4955933;28;20020;-79
2022/02/06 00:48:21;;;;;;;10.35;2.22;;;;;;;;;;4953723;28;20035;-79
2022/02/06 00:50:51;;;;;;;7.85;2.70;;;;;;;;;;4950544;28;20032;-78
2022/02/06 00:53:18;;;;;;;7.53;2.72;;;;;;;;;;4948693;28;20039;-79
2022/02/06 00:55:47;;;;;;;6.78;1.85;;;;;;;;;;4971104;28;20027;-79
2022/02/06 00:58:13;;;;;;;5.43;2.13;;;;;;;;;;4958280;28;20110;-79
2022/02/06 01:00:39;;;;;;;8.60;1.80;;;;;;;;;;4961495;28;20467;-78
2022/02/06 01:03:05;;;;;;;5.13;1.75;;;;;;;;;;4953913;28;20031;-79
2022/02/06 01:05:32;;;;;;;7.90;1.90;;;;;;;;;;4953586;28;20461;-79
2022/02/06 01:07:58;;;;;;;11.20;2.80;;;;;;;;;;4951004;28;20511;-79
2022/02/06 01:10:24;;;;;;;9.10;2.25;;;;;;;;;;4954113;28;20177;-78
2022/02/06 01:13:13;;;;;;;7.05;1.95;;;;;;;;;;4953567;28;20046;-79
2022/02/06 01:15:45;;;;;;;9.20;1.60;;;;;;;;;;4971548;28;20110;-79
2022/02/06 01:18:19;;;;;;;5.47;2.03;;;;;;;;;;4952506;28;20247;-78
2022/02/06 01:20:54;;;;;;;8.07;3.03;;;;;;;;;;4969662;28;20122;-78
2022/02/06 01:26:00;;;;;;;8.68;2.22;;;;;;;;;;4966341;28;20047;-79
2022/02/06 01:28:36;;;;;;;8.07;1.85;;;;;;;;;;4963374;28;20030;-79
2022/02/06 01:31:17;;;;;;;6.57;1.77;;;;;;;;;;4956435;28;20031;-79
2022/02/06 01:33:49;;;;;;;7.20;2.17;;;;;;;;;;4959698;28;20142;-79
2022/02/06 01:41:25;;;;;;;10.02;3.22;;;;;;;;;;4959429;28;20031;-79
2022/02/06 01:43:58;;;;;;;8.38;2.10;;;;;;;;;;4956583;28;20098;-78
2022/02/06 02:02:52;;;;;;;6.65;2.05;;;;;;;;;;4959158;28;20050;-79
2022/02/06 02:16:30;;;;;;;5.80;2.15;;;5.70;99.90;;;;;;4952266;28;20074;-78
2022/02/06 02:19:18;;;;;;;8.00;1.73;;;;;;;;;;4952497;28;20126;-79
2022/02/06 02:27:15;;;;;;;8.68;2.20;;;;;;;;;;4951265;28;20058;-79
2022/02/06 02:48:11;;;;;;;9.07;2.15;;;;;;;;;;4953352;28;20118;-77
2022/02/06 02:50:42;;;;;;;5.05;1.38;;;;;;;;;;4974909;28;20027;-79
2022/02/06 02:58:22;;;;;;;6.55;1.80;;;;;;;;;;4959802;28;20553;-80
2022/02/06 03:03:29;;;;;;;6.15;2.20;;;;;;;;;;4956952;28;20028;-78
2022/02/06 03:05:57;;;;;;;10.20;2.05;;;;;;;;;;4970562;28;20066;-79
2022/02/06 03:08:23;;;;;;;7.28;2.00;;;;;;;;;;4953919;28;20087;-78
2022/02/06 03:10:52;;;;;;;10.60;2.05;;;;;;;;;;4970791;28;20122;-79
2022/02/06 03:13:20;;;;;;;9.05;2.25;;;;;;;;;;4958773;28;20042;-78
2022/02/06 03:18:26;;;;;;;12.95;2.45;;;;;;;;;;4952011;28;20039;-78
2022/02/06 03:20:54;;;;;;;6.10;2.10;;;;;;;;;;4955863;28;20066;-78
2022/02/06 03:23:20;;;;;;;7.07;2.05;;;;;;;;;;4955784;28;20059;-78
2022/02/06 03:25:55;;;;;;;10.52;2.17;;;;;;;;;;4958802;28;20048;-78
2022/02/06 03:28:21;;;;;;;9.57;1.92;;;;;;;;;;4981357;28;20046;-78
2022/02/06 03:30:47;;;;;;;5.65;1.95;;;;;;;;;;4979785;28;20037;-79
2022/02/06 03:33:13;;;;;;;5.68;1.90;;;;;;;;;;4979652;28;20092;-79
2022/02/06 03:35:39;;;;;;;6.07;1.77;;;;;;;;;;4958895;28;20724;-77
2022/02/06 03:38:06;;;;;;;6.53;2.00;;;;;;;;;;4959979;28;20060;-78
2022/02/06 03:40:39;;;;;;;13.88;2.85;;;;;;;;;;4979405;28;20391;-78
2022/02/06 03:43:12;;;;;;;7.70;2.03;;;;;;;;;;4978906;28;20035;-79
2022/02/06 03:45:49;;;;;;;6.60;1.65;;;;;;;;;;4960262;28;20090;-78
2022/02/06 03:48:28;;;;;;;8.35;2.08;;;;;;;;;;4952386;28;20043;-79
2022/02/06 03:50:56;;;;;;;10.50;1.92;;;;;;;;;;4955098;28;20887;-77
2022/02/06 03:53:25;;;;;;;6.38;2.25;;;;;;;;;;4956174;28;20044;-79
2022/02/06 03:55:52;;;;;;;6.63;1.92;;;;;;;;;;4957132;28;20039;-78
2022/02/06 03:58:19;;;;;;;10.35;2.05;;;;;;;;;;4970194;28;20129;-78
2022/02/06 04:00:45;;;;;;;7.93;2.10;;;;;;;;;;4953729;28;21188;-79
2022/02/06 04:03:11;;;;;;;6.13;1.80;;;;;;;;;;4956315;28;20031;-78
2022/02/06 04:05:38;;;;;;;9.02;2.00;;;;;;;;;;4957545;28;20051;-78
2022/02/06 04:08:07;;;;;;;6.93;2.28;;;;;;;;;;4956581;28;20035;-79
2022/02/06 04:10:43;;;;;;;8.57;2.33;;;;;;;;;;4957437;28;20046;-79
2022/02/06 04:13:15;;;;;;;10.77;2.63;;;;;;;;;;4963337;28;20031;-78
2022/02/06 04:15:47;;;;;;;11.40;1.75;;;5.90;99.90;;;;;;4955972;28;20319;-79
2022/02/06 04:18:17;;;;;;;13.75;2.97;;;;;;;;;;4974982;28;20484;-80
2022/02/06 04:20:43;;;;;;;7.05;2.67;;;;;;;;;;4956087;28;20042;-78
2022/02/06 04:23:09;;;;;;;8.35;1.75;;;;;;;;;;4958425;28;20233;-78
2022/02/06 04:25:35;;;;;;;6.30;1.60;;;;;;;;;;4952770;28;20038;-78
2022/02/06 04:28:01;;;;;;;10.90;2.42;;;;;;;;;;4957476;28;20043;-78
2022/02/06 04:30:27;;;;;;;12.30;2.08;;;;;;;;;;4972612;28;20042;-79
2022/02/06 04:32:54;;;;;;;8.07;2.00;;;;;;;;;;4955526;28;20031;-78
2022/02/06 04:35:27;;;;;;;12.93;2.38;;;;;;;;;;4955389;28;20103;-78
2022/02/06 04:54:34;;;;;;;7.47;2.03;;;;;;;;;;4957080;28;20035;-79
2022/02/06 05:19:14;;;;;;;6.70;2.08;;;;;;;;;;4957915;28;20175;-80
2022/02/06 05:22:04;;;;;;;9.32;2.05;;;;;;;;;;4951313;28;20028;-79
2022/02/06 05:35:10;;;;;;;9.18;1.90;;;;;;;;;;4917159;29;20564;-79
2022/02/06 05:37:36;;;;;;;6.43;1.65;;;;;;;;;;4913486;29;20109;-80
2022/02/06 05:40:03;;;;;;;9.25;2.38;;;;;;;;;;4935752;28;20098;-78
2022/02/06 05:42:29;;;;;;;8.15;2.25;;;;;;;;;;4955896;28;20051;-79
2022/02/06 05:44:56;;;;;;;8.32;1.75;;;;;;;;;;4955710;28;20036;-78
2022/02/06 05:47:23;;;;;;;6.60;2.05;;;;;;;;;;4952075;28;20287;-78
2022/02/06 05:49:49;;;;;;;7.00;1.70;;;;;;;;;;4956854;28;20035;-80
2022/02/06 05:52:15;;;;;;;7.20;1.80;;;;;;;;;;4956452;28;20086;-79
2022/02/06 05:54:41;;;;;;;7.10;1.77;;;;;;;;;;4957127;28;20035;-79
2022/02/06 05:57:07;;;;;;;10.52;1.95;;;;;;;;;;4962646;28;20042;-79
2022/02/06 05:59:33;;;;;;;7.88;2.10;;;;;;;;;;4958726;28;20035;-79
2022/02/06 06:01:59;;;;;;;7.60;1.77;;;;;;;;;;4955110;28;20034;-79
2022/02/06 06:04:25;;;;;;;7.82;1.63;;;;;;;;;;4961068;28;20035;-78
2022/02/06 06:06:51;;;;;;;7.07;1.65;;;;;;;;;;4958445;28;20035;-79
2022/02/06 06:09:17;;;;;;;14.13;2.22;;;;;;;;;;4960234;28;20035;-79
2022/02/06 06:11:43;;;;;;;12.30;2.15;;;;;;;;;;4965758;28;20042;-79
2022/02/06 06:14:09;;;;;;;9.55;2.08;;;;;;;;;;4954277;28;20031;-78
2022/02/06 06:16:35;;;;;;;5.75;1.83;;;;;;;;;;4957336;28;20036;-79
2022/02/06 06:19:02;;;;;;;7.20;1.55;;;;;;;;;;4956502;28;20739;-78
2022/02/06 06:21:34;;;;;;;7.10;1.50;;;;;;;;;;4957189;28;20020;-81
2022/02/06 06:24:00;;;;;;;9.95;2.25;;;;;;;;;;4955867;28;20603;-79
2022/02/06 06:26:28;;;;;;;4.10;1.98;;;;;;;;;;4955187;28;20059;-78
2022/02/06 06:28:54;;;;;;;5.95;1.77;;;;;;;;;;4974339;28;20027;-79
2022/02/06 06:31:20;;;;;;;4.57;1.92;;;;;;;;;;4945662;28;20075;-79
2022/02/06 06:33:46;;;;;;;10.40;1.95;;;;;;;;;;4959196;28;20065;-78
2022/02/06 06:36:12;;;;;;;6.28;1.48;;;;;;;;;;4960553;28;20039;-78
2022/02/06 06:38:38;;;;;;;8.77;1.70;;;;;;;;;;4968950;28;20641;-79
2022/02/06 06:41:04;;;;;;;7.88;1.83;;;;;;;;;;4956719;28;20039;-79
2022/02/06 06:43:30;;;;;;;5.18;1.60;;;;;;;;;;4959129;29;20023;-78
2022/02/06 06:45:57;;;;;;;8.45;1.90;;;;;;;;;;4968870;28;20086;-78
2022/02/06 06:48:23;;;;;;;4.97;1.55;;;;;;;;;;4959465;28;20074;-78
2022/02/06 06:50:49;;;;;;;5.53;1.65;;;;;;;;;;4949338;28;20034;-79
2022/02/06 06:53:15;;;;;;;4.55;1.42;;;;;;;;;;4973928;28;20054;-77
2022/02/06 06:55:44;;;;;;;9.32;1.73;;;;;;;;;;4954239;28;20039;-79
2022/02/06 06:58:19;;;;;;;11.55;2.15;;;;;;;;;;4954401;28;20023;-79
2022/02/06 07:03:31;;;;;;;6.65;1.92;;;;;;;;;;4952825;29;20059;-79
2022/02/06 07:05:57;;;;;;;9.82;2.28;;;;;;;;;;4953719;28;20451;-78
2022/02/06 07:08:23;;;;;;;12.30;2.50;;;;;;;;;;4956806;29;20050;-78
2022/02/06 07:10:49;;;;;;;6.07;1.70;;;;;;;;;;4960521;28;20114;-79
2022/02/06 07:13:17;;;;;;;4.75;1.48;;;;;;;;;;4956968;28;20046;-79
2022/02/06 07:15:43;;;;;;;8.57;1.80;;;;;;;;;;4975932;28;20118;-78
2022/02/06 07:18:09;;;;;;;5.03;1.67;;;;;;;;;;4951658;29;20099;-79
2022/02/06 07:20:36;;;;;;;5.43;1.60;;;;;;;;;;4967928;28;20040;-78
2022/02/06 07:23:05;;;;;;;5.68;1.90;;;;;;;;;;4949009;28;20130;-79
2022/02/06 07:25:31;;;;;;;10.80;1.75;;;;;;;;;;4956612;28;20099;-79
2022/02/06 07:27:57;;;;;;;6.55;1.75;;;;;;;;;;4955475;28;20118;-79
2022/02/06 07:30:23;;;;;;;7.20;1.88;;;;;;;;;;4968856;28;20039;-77
2022/02/06 07:32:49;;;;;;;8.95;1.88;;;;;;;;;;4966645;28;20020;-79
2022/02/06 07:35:15;;;;;;;12.88;2.25;;;;;;;;;;4968184;28;20051;-79
2022/02/06 07:37:43;;;;;;;8.18;2.13;;;;;;;;;;4972211;28;20012;-80
2022/02/06 07:40:10;;;;;;;7.30;1.98;;;;;;;;;;4965893;28;20042;-79
2022/02/06 07:42:36;;;;;;;6.75;1.85;;;;;;;;;;4959493;28;20027;-78
2022/02/06 07:45:03;;;;;;;6.60;1.45;;;;;;;;;;4959420;28;20066;-78
2022/02/06 07:47:29;;;;;;;5.03;1.60;;;;;;;;;;4974708;28;20023;-79
2022/02/06 07:49:58;;;;;;;8.10;1.55;;;;;;;;;;4956980;28;20544;-79
2022/02/06 07:52:25;;;;;;;8.98;2.25;;;;;;;;;;4958108;28;20027;-78
2022/02/06 07:54:51;;;;;;;4.07;1.42;;;;;;;;;;4950403;28;20410;-79
2022/02/06 07:57:17;;;;;;;7.85;2.47;;;;;;;;;;4953170;28;20384;-80
2022/02/06 07:59:43;;;;;;;8.60;2.10;;;;;;;;;;4953740;28;20031;-79
2022/02/06 08:02:09;;;;;;;6.97;2.10;;;;;;;;;;4959085;28;20086;-78
2022/02/06 08:04:36;;;;;;;5.50;1.52;;;;;;;;;;4953466;28;20046;-78
2022/02/06 08:07:03;;;;;;;10.93;1.80;;;5.80;99.90;;;;;;4949307;28;20035;-78
2022/02/06 08:09:44;;;;;;;5.38;2.05;;;;;;;;;;4950159;28;20040;-78
2022/02/06 08:12:10;;;;;;;;;;;6.00;99.90;;;;;;4953880;28;20132;-79
2022/02/06 08:14:54;;;;;;;5.68;1.70;;;;;;;;;;4952686;28;20437;-78
2022/02/06 08:17:21;;;;;;;6.57;2.10;;;;;;;;;;4957168;28;20039;-79
2022/02/06 08:19:47;;;;;;;4.50;1.85;;;;;;;;;;4957288;28;20058;-79
2022/02/06 08:22:14;;;;;;;5.97;1.75;;;;;;;;;;4978695;28;20031;-80
2022/02/06 08:24:40;;;;;;;7.13;2.17;;;;;;;;;;4953396;28;20038;-80
2022/02/06 08:27:06;;;;;;;9.85;2.08;;;;;;;;;;4961880;28;20043;-79
2022/02/06 08:29:32;;;;;;;5.22;2.10;;;;;;;;;;4963220;28;20430;-79
2022/02/06 08:31:59;;;;;;;8.32;2.08;;;;;;;;;;4959956;28;20031;-79
2022/02/06 08:34:25;;;;;;;12.13;2.85;;;;;;;;;;4959529;28;20039;-79
2022/02/06 08:36:51;;;;;;;9.98;2.38;;;;;;;;;;4960598;28;20024;-79
2022/02/06 08:39:17;;;;;;;7.90;2.47;;;;;;;;;;4961107;28;20035;-81
2022/02/06 08:41:43;;;;;;;8.80;2.95;;;;;;;;;;4950167;28;20115;-79
2022/02/06 08:44:09;;;;;;;11.52;2.60;;;;;;;;;;4956582;28;20032;-79
2022/02/06 08:46:35;;;;;;;8.40;2.50;;;;;;;;;;4954579;28;20434;-77
2022/02/06 08:49:01;;;;;;;9.20;2.40;;;;;;;;;;4955018;28;20059;-79
2022/02/06 08:51:27;;;;;;;9.82;2.53;;;;;;;;;;4956970;28;20040;-79
2022/02/06 08:53:53;;;;;;;7.03;2.50;;;;;;;;;;4964430;28;20035;-80
2022/02/06 08:56:19;;;;;;;8.90;2.75;;;;;;;;;;4961556;28;20028;-79
2022/02/06 08:58:45;;;;;;;9.60;3.13;;;;;;;;;;4964299;28;20030;-79
2022/02/06 09:01:11;;;;;;;7.55;2.53;;;;;;;;;;4961983;28;20066;-79
2022/02/06 09:03:37;;;;;;;11.38;3.40;;;;;;;;;;4964824;28;20019;-79
2022/02/06 09:06:03;;;;;;;9.68;2.83;;;;;;;;;;4960460;28;20472;-79
2022/02/06 09:08:29;;;;;;;7.38;3.22;;;;;;;;;;4966368;28;20039;-80
2022/02/06 09:10:55;;;;;;;7.40;2.53;;;;;;;;;;4979784;28;20015;-80
2022/02/06 09:13:22;;;;;;;8.30;3.15;;;;;;;;;;4964708;28;20031;-79
2022/02/06 09:15:47;;;;;;;6.00;2.38;;;;;;;;;;4965937;28;20031;-79
2022/02/06 09:18:13;;;;;;;7.97;2.67;;;;;;;;;;4965552;28;20145;-79
2022/02/06 09:20:39;;;;;;;9.68;2.83;;;;;;;;;;4963766;28;20036;-79
2022/02/06 09:23:06;;;;;;;7.90;2.55;;;;;;;;;;4969991;28;20483;-78
2022/02/06 09:25:32;;;;;;;7.65;2.83;;;;;;;;;;4984295;28;20139;-78
2022/02/06 09:27:59;;;;;;;11.45;2.72;;;;;;;;;;4951069;29;20056;-79
2022/02/06 09:30:25;;;;;;;6.22;2.17;;;;;;;;;;4977497;28;20059;-79
2022/02/06 09:35:18;;;;;;;5.20;2.20;;;;;;;;;;4964065;28;20043;-78
2022/02/06 09:37:44;;;;;;;12.60;3.13;;;;;;;;;;4986266;28;20102;-77
2022/02/06 09:40:14;;;;;;;8.25;3.50;;;5.90;99.90;;;;;;4983194;28;20027;-79
2022/02/06 09:42:42;;;;;;;8.57;2.85;;;;;;;;;;4964249;28;20031;-78
2022/02/06 09:45:09;;;;;;;6.00;2.70;;;;;;;;;;4980385;28;20046;-78
2022/02/06 09:47:36;;;;;;;10.75;2.70;;;;;;;;;;4975547;28;20028;-79
2022/02/06 09:50:03;;;;;;;8.25;2.75;;;5.90;99.90;;;;;;4962611;28;20023;-79
2022/02/06 09:52:29;;;;;;;7.40;2.25;;;;;;;;;;4965171;28;20063;-78
2022/02/06 09:54:56;;;;;;;8.02;2.63;;;;;;;;;;4975980;28;20058;-78
2022/02/06 09:57:32;;;;;;;5.93;2.53;;;;;;;;;;4963272;28;20059;-78
2022/02/06 09:59:58;;;;;;;7.75;2.90;;;6.00;99.90;;;;;;4961504;28;20016;-79
2022/02/06 10:02:26;;;;;;;6.03;2.30;;;;;;;;;;4964800;28;20004;-77
2022/02/06 10:04:56;;;;;;;5.70;2.30;;;;;;;;;;4965643;28;20032;-78
2022/02/06 10:07:37;;;;;;;11.48;2.90;;;;;;;;;;4966220;28;20022;-77
2022/02/06 10:10:06;;;;;;;9.68;2.80;;;6.10;99.90;;;;;;4969301;28;20015;-78
2022/02/06 10:12:36;;;;;;;9.23;2.70;;;6.10;99.90;;;;;;4965711;28;20107;-80
2022/02/06 10:15:03;;;;;;;8.73;2.55;;;;;;;;;;4966598;28;20054;-80
2022/02/06 10:17:29;;;;;;;5.15;2.22;;;;;;;;;;4964447;28;20036;-79
2022/02/06 10:19:56;;;;;;;6.22;2.10;;;;;;;;;;4959645;28;20058;-80
2022/02/06 10:22:25;;;;;;;7.30;2.45;;;;;;;;;;4962554;28;20034;-78
2022/02/06 10:25:18;;;;;;;5.22;2.20;;;;;;;;;;4970891;28;20072;-79
2022/02/06 10:27:47;;;;;;;5.47;2.47;;;;;;;;;;4967099;28;20047;-80
2022/02/06 10:30:19;;;;;;;5.88;2.45;;;;;;;;;;4972367;28;20027;-78
2022/02/06 10:32:46;;;;;;;4.72;2.13;;;;;;;;;;4963128;28;20047;-76
2022/02/06 10:35:12;;;;;;;7.78;2.60;;;;;;;;;;4966389;28;20035;-79
2022/02/06 10:37:38;;;;;;;3.80;2.05;;;;;;;;;;4965814;28;20035;-80
2022/02/06 10:40:07;;;;;;;8.50;2.47;;;;;;;;;;4977353;28;20039;-79
2022/02/06 10:42:41;;;;;;;6.82;2.50;;;6.20;99.90;;;;;;4959005;28;20024;-79
2022/02/06 10:45:26;;;;;;;5.05;2.60;;;;;;;;;;4965765;28;20035;-78
2022/02/06 10:47:54;;;;;;;6.18;2.40;;;6.10;99.90;;;;;;4965988;28;20035;-79
2022/02/06 10:50:27;;;;;;;6.55;2.30;;;;;;;;;;4966773;28;20039;-79
2022/02/06 10:53:06;;;;;;;5.35;2.13;;;;;;;;;;4979616;28;20019;-80
2022/02/06 10:55:32;;;;;;;4.70;2.00;;;;;;;;;;4964922;28;20038;-79
2022/02/06 10:57:59;;;;;;;6.03;2.35;;;;;;;;;;4964477;28;20027;-80
2022/02/06 11:00:30;;;;;;;3.70;2.10;;;6.20;99.90;;;;;;4962122;28;20015;-78
2022/02/06 11:03:14;;;;;;;5.68;2.40;;;;;;;;;;4963757;28;20059;-79
2022/02/06 11:05:51;;;;;;;7.68;2.78;;;;;;;;;;4981701;28;20067;-80
2022/02/06 11:08:29;;;;;;;5.00;2.00;;;;;;;;;;4964835;28;20050;-79
2022/02/06 11:11:01;;;;;;;4.90;1.88;;;6.20;99.90;;;;;;4965215;28;20260;-80
2022/02/06 11:13:28;;;;;;;6.22;2.35;;;;;;;;;;4961709;28;20023;-80
2022/02/06 11:15:54;;;;;;;6.75;2.30;;;;;;;;;;4981352;28;20030;-78
2022/02/06 11:18:32;;;;;;;7.45;2.40;;;;;;;;;;4984345;28;20012;-79
2022/02/06 11:20:59;;;;;;;5.45;2.40;;;;;;;;;;4970042;28;20066;-80
2022/02/06 11:23:46;;;;;;;6.97;2.00;;;6.10;99.90;;;;;;4980779;28;20087;-80
2022/02/06 11:26:13;;;;;;;9.00;2.40;;;;;;;;;;4977665;28;20039;-79
2022/02/06 11:28:40;;;;;;;5.65;2.45;;;;;;;;;;4963101;28;20018;-80
2022/02/06 11:31:07;;;;;;;3.67;1.85;;;;;;;;;;4965899;28;20027;-80
2022/02/06 11:33:33;;;;;;;4.18;2.03;;;;;;;;;;4963877;28;20035;-79
2022/02/06 11:36:05;;;;;;;5.55;1.92;;;;;;;;;;4966158;28;20102;-80
2022/02/06 11:44:10;;;;;;;9.73;2.55;;;;;;;;;;4966798;28;20046;-80
2022/02/06 11:46:39;;;;;;;5.20;1.83;;;;;;;;;;4967149;28;20626;-78
2022/02/06 11:49:08;;;;;;;8.15;1.83;;;;;;;;;;4965020;28;20039;-79
2022/02/06 11:51:34;;;;;;;5.97;1.80;;;;;;;;;;4970162;28;20047;-79
2022/02/06 11:54:20;;;;;;;4.35;1.83;;;;;;;;;;4963914;28;22553;-79
2022/02/06 11:56:46;;;;;;;1.08;0.85;;;;;;;;;;4980800;28;20023;-80
2022/02/06 11:59:13;;;;;;;4.75;1.67;;;;;;;;;;4974806;28;20039;-80
2022/02/06 12:01:43;;;;;;;4.97;1.60;;;;;;;;;;4966120;28;20027;-79
2022/02/06 12:04:19;;;;;;;6.45;1.50;;;;;;;;;;4977376;28;20016;-82
2022/02/06 12:06:48;;;;;;;5.32;1.70;;;;;;;;;;4985386;28;20065;-79
2022/02/06 12:09:21;;;;;;;6.35;2.30;;;;;;;;;;4969467;28;20115;-79
2022/02/06 12:12:05;;;;;;;3.75;1.60;;;;;;;;;;4969159;28;20026;-80
2022/02/06 12:14:37;;;;;;;1.65;0.95;;;;;;;;;;4987120;28;20054;-80
2022/02/06 12:17:15;;;;;;;2.88;1.27;;;;;;;;;;4971183;28;20067;-81
2022/02/06 12:19:41;;;;;;;5.35;1.83;;;;;;;;;;4965622;28;20026;-81
2022/02/06 12:22:39;;;;;;;4.32;1.55;;;6.40;99.90;;;;;;4969815;28;20015;-80
2022/02/06 12:25:22;;;;;;;4.28;1.50;;;;;;;;;;4966786;28;20023;-80
2022/02/06 12:27:49;;;;;;;3.38;1.75;;;;;;;;;;4969009;28;20041;-80
2022/02/06 12:30:24;;;;;;;3.58;1.40;;;;;;;;;;4967538;28;20015;-79
2022/02/06 12:32:50;;;;;;;2.80;1.10;;;;;;;;;;4969400;28;20061;-80
2022/02/06 12:38:05;;;;;;;3.55;1.33;;;;;;;;;;4968373;28;20095;-80
2022/02/06 12:40:31;;;;;;;1.30;0.68;;;;;;;;;;4967762;28;20023;-80
2022/02/06 12:43:03;;;;;;;2.42;1.10;;;;;;;;;;4966402;28;20074;-80
2022/02/06 12:45:30;;;;;;;4.20;1.23;;;6.50;99.90;;;;;;4964767;28;20022;-80
2022/02/06 12:48:09;;;;;;;4.78;1.52;;;6.50;99.90;;;;;;4978232;28;20023;-81
2022/02/06 12:50:36;;;;;;;4.63;1.73;;;;;;;;;;4982970;28;20028;-81
2022/02/06 12:53:05;;;;;;;11.45;5.22;;;;;;;;;;4975786;28;20035;-80
2022/02/06 12:55:33;;;;;;;4.93;2.22;;;6.40;99.90;;;;;;4970364;28;20086;-79
2022/02/06 12:58:00;;;;;;;2.20;1.20;;;;;;;;;;4964963;28;20034;-81
2022/02/06 13:00:40;;;;;;;3.78;1.58;;;;;;;;;;4969534;28;20110;-79
2022/02/06 13:03:35;;;;;;;1.52;0.93;;;6.50;99.90;;;;;;4964282;28;20047;-80
2022/02/06 13:06:07;;;;;;;7.05;2.35;;;;;;;;;;4967204;28;20110;-79
2022/02/06 13:08:38;;;;;;;3.03;1.20;;;;;;;;;;4965986;28;20012;-78
2022/02/06 13:11:08;;;;;;;;;;;6.50;99.90;;;;;;4959920;28;20039;-79
2022/02/06 13:16:17;;;;;;;2.25;1.13;;;;;;;;;;4960472;28;20047;-80
2022/02/06 13:26:39;;;;;;;6.32;1.60;;;;;;;;;;4960157;28;20039;-80
2022/02/06 13:29:20;;;;;;;3.40;1.20;;;;;;;;;;4980692;28;20023;-80
2022/02/06 13:32:13;;;;;;;3.80;1.30;;;;;;;;;;4961503;28;20023;-79
2022/02/06 13:37:20;;;;;;;4.22;1.02;;;;;;;;;;4961419;28;20103;-79
2022/02/06 13:39:53;;;;;;;1.95;1.33;;;;;;;;;;4963150;28;20019;-79
2022/02/06 13:42:22;;;;;;;5.07;1.20;;;;;;;;;;4963014;28;20030;-79
2022/02/06 13:45:01;;;;;;;4.18;1.50;;;;;;;;;;4958437;28;20106;-78
2022/02/06 13:47:27;;;;;;;3.17;1.63;;;;;;;;;;4970245;28;20042;-78
2022/02/06 13:49:56;;;;;;;1.73;0.90;;;;;;;;;;4960596;28;20114;-80
2022/02/06 13:52:27;;;;;;;3.58;1.13;;;;;;;;;;4961184;28;20023;-78
2022/02/06 13:54:53;;;;;;;2.33;0.60;;;;;;;;;;4955853;28;20129;-79
2022/02/06 13:57:20;;;;;;;4.07;1.00;;;;;;;;;;4954220;28;20023;-79
2022/02/06 13:59:47;;;;;;;1.00;0.70;;;;;;;;;;4950991;28;20405;-78
2022/02/06 14:02:13;;;;;;;1.50;0.63;;;;;;;;;;4957560;28;20019;-78
2022/02/06 14:04:43;;;;;;;1.63;0.80;;;6.70;99.90;;;;;;4955672;28;20108;-79
2022/02/06 14:07:13;;;;;;;1.90;1.05;;;6.70;99.90;;;;;;4957061;28;20483;-78
2022/02/06 14:12:09;;;;;;;2.17;0.70;;;;;;;;;;4944838;28;20411;-79
2022/02/06 14:14:36;;;;;;;2.53;0.90;;;;;;;;;;4949362;28;20024;-77
2022/02/06 14:17:08;;;;;;;1.95;0.68;;;;;;;;;;4950249;28;20399;-80
2022/02/06 14:19:44;;;;;;;3.17;1.00;;;;;;;;;;4950329;28;20031;-79
2022/02/06 14:22:15;;;;;;;1.83;0.70;;;;;;;;;;4960266;28;20074;-78
2022/02/06 14:25:07;;;;;;;2.60;1.55;;;;;;;;;;4959870;28;20031;-79
2022/02/06 14:27:38;;;;;;;1.48;1.00;;;;;;;;;;4947253;28;20094;-78
2022/02/06 14:30:06;;;;;;;3.58;1.55;;;;;;;;;;4964662;28;20035;-78
2022/02/06 14:32:32;;;;;;;9.88;3.97;;;;;;;;;;4956467;28;20047;-78
2022/02/06 14:35:07;;;;;;;1.42;0.70;;;7.80;99.90;;;;;;4955660;28;20071;-78
2022/02/06 14:37:43;;;;;;;2.22;0.50;;;;;;;;;;4956971;28;20059;-77
2022/02/06 14:40:23;;;;;;;2.35;1.23;;;;;;;;;;4949402;28;20027;-79
2022/02/06 14:42:53;;;;;;;6.57;2.47;;;;;;;;;;4958547;28;20118;-79
2022/02/06 14:45:20;;;;;;;2.50;1.23;;;;;;;;;;4954594;28;20039;-79
2022/02/06 14:47:46;;;;;;;2.90;0.95;;;;;;;;;;4955890;28;20062;-77
2022/02/06 14:50:17;;;;;;;2.55;1.08;;;6.90;99.90;;;;;;4957015;28;20035;-78
2022/02/06 14:52:43;;;;;;;0.90;0.73;;;;;;;;;;4959687;28;20034;-79
2022/02/06 14:55:11;;;;;;;7.75;4.30;;;;;;;;;;4969655;28;20027;-78
2022/02/06 14:57:37;;;;;;;3.90;2.00;;;;;;;;;;4966564;28;20031;-78
2022/02/06 15:00:10;;;;;;;5.80;2.70;;;;;;;;;;4957946;28;20043;-78
2022/02/06 15:02:37;;;;;;;3.50;1.52;;;;;;;;;;4956899;28;20095;-79
2022/02/06 15:05:03;;;;;;;2.42;1.25;;;;;;;;;;4957604;28;20043;-78
2022/02/06 15:07:29;;;;;;;3.67;1.70;;;;;;;;;;4956410;28;20043;-78
2022/02/06 15:09:56;;;;;;;2.65;1.15;;;;;;;;;;4968703;28;20054;-78
2022/02/06 15:12:22;;;;;;;3.30;1.75;;;;;;;;;;4964025;28;20038;-79
2022/02/06 15:14:48;;;;;;;3.47;2.30;;;;;;;;;;4961614;28;20042;-79
2022/02/06 15:17:18;;;;;;;1.55;0.70;;;;;;;;;;4978483;28;20035;-79
2022/02/06 15:19:45;;;;;;;0.57;0.40;;;;;;;;;;4979074;28;20763;-80
2022/02/06 15:22:11;;;;;;;1.25;0.55;;;;;;;;;;4964753;28;20553;-78
2022/02/06 15:24:37;;;;;;;4.47;2.25;;;;;;;;;;4975127;28;20035;-80
2022/02/06 15:27:03;;;;;;;3.10;2.45;;;;;;;;;;4968909;28;20031;-80
2022/02/06 15:29:29;;;;;;;2.55;1.30;;;;;;;;;;4964440;28;20042;-79
2022/02/06 15:31:56;;;;;;;4.05;2.03;;;;;;;;;;4967589;28;20039;-79
2022/02/06 15:34:22;;;;;;;1.08;0.60;;;;;;;;;;4964969;28;20309;-78
2022/02/06 15:36:51;;;;;;;0.70;0.40;;;;;;;;;;4969886;28;20035;-79
2022/02/06 15:39:22;;;;;;;1.60;1.10;;;;;;;;;;4970560;28;20024;-79
2022/02/06 15:41:51;;;;;;;0.70;0.60;;;;;;;;;;4969728;28;20062;-80
2022/02/06 15:44:17;;;;;;;1.02;0.60;;;;;;;;;;4961549;28;20020;-79
2022/02/06 15:46:43;;;;;;;1.58;0.70;;;;;;;;;;4967072;28;20124;-78
2022/02/06 15:49:09;;;;;;;1.98;1.10;;;;;;;;;;4967961;28;20111;-80
2022/02/06 15:51:35;;;;;;;1.50;0.98;;;;;;;;;;4969053;28;20078;-78
2022/02/06 15:54:02;;;;;;;1.27;0.90;;;;;;;;;;4955235;28;20039;-79
2022/02/06 15:56:28;;;;;;;1.55;0.77;;;;;;;;;;4959588;28;20015;-78
2022/02/06 15:58:54;;;;;;;3.75;1.52;;;;;;;;;;4976028;28;20014;-79
2022/02/06 16:01:20;;;;;;;1.52;0.80;;;;;;;;;;4965745;28;20184;-79
2022/02/06 16:03:46;;;;;;;1.88;0.88;;;;;;;;;;4961182;28;20043;-80
2022/02/06 16:06:12;;;;;;;3.25;0.88;;;;;;;;;;4959517;28;20046;-81
2022/02/06 16:08:38;;;;;;;1.10;0.65;;;;;;;;;;4963413;28;20035;-79
2022/02/06 16:11:04;;;;;;;1.38;0.57;;;;;;;;;;4966353;28;20027;-79
2022/02/06 16:13:30;;;;;;;1.67;0.80;;;;;;;;;;4957158;28;20012;-79
2022/02/06 16:15:56;;;;;;;1.50;0.75;;;;;;;;;;4960102;28;20042;-79
2022/02/06 16:18:22;;;;;;;2.03;0.30;;;;;;;;;;4960157;28;20035;-79
2022/02/06 16:20:50;;;;;;;0.98;0.70;;;;;;;;;;4961589;28;20034;-79
2022/02/06 16:23:16;;;;;;;1.55;0.90;;;;;;;;;;4961164;28;20436;-78
2022/02/06 16:25:42;;;;;;;2.25;0.88;;;;;;;;;;4956875;28;20039;-79
2022/02/06 16:28:08;;;;;;;1.00;0.60;;;;;;;;;;4955758;28;20035;-80
2022/02/06 16:30:34;;;;;;;0.82;0.52;;;;;;;;;;4961460;28;20062;-79
2022/02/06 16:33:00;;;;;;;0.73;0.50;;;;;;;;;;4971771;28;20043;-79
2022/02/06 16:35:26;;;;;;;0.95;0.65;;;;;;;;;;4953933;28;20041;-79
2022/02/06 16:37:52;;;;;;;0.90;0.50;;;;;;;;;;4966453;28;20107;-80
2022/02/06 16:40:18;;;;;;;1.00;0.63;;;;;;;;;;4955475;28;20110;-80
2022/02/06 16:42:45;;;;;;;1.83;0.80;;;;;;;;;;4979355;28;20020;-80
2022/02/06 16:45:12;;;;;;;3.40;0.60;;;;;;;;;;4951802;28;20043;-78
2022/02/06 16:47:40;;;;;;;1.88;0.93;;;;;;;;;;4952266;28;20027;-78
2022/02/06 16:50:07;;;;;;;5.45;1.08;;;;;;;;;;4948365;28;20487;-77
2022/02/06 16:52:33;;;;;;;1.60;0.63;;;;;;;;;;4931675;28;20043;-77
2022/02/06 16:54:59;;;;;;;1.27;0.50;;;;;;;;;;4946688;28;20038;-78
2022/02/06 16:57:25;;;;;;;0.90;0.60;;;;;;;;;;4947880;28;20033;-76
2022/02/06 16:59:51;;;;;;;0.65;0.57;;;;;;;;;;4945857;28;20036;-77
2022/02/06 17:02:17;;;;;;;0.68;0.50;;;;;;;;;;4946913;28;20027;-77
2022/02/06 17:04:43;;;;;;;2.22;0.90;;;;;;;;;;4946278;28;20372;-76
2022/02/06 17:07:10;;;;;;;1.25;0.80;;;;;;;;;;4955410;28;20141;-78
2022/02/06 17:09:37;;;;;;;0.85;0.60;;;;;;;;;;4949295;28;20031;-77
2022/02/06 17:12:03;;;;;;;2.85;0.90;;;;;;;;;;4951605;28;20487;-78
2022/02/06 17:14:29;;;;;;;1.77;0.70;;;;;;;;;;4944268;28;20493;-79
2022/02/06 17:16:55;;;;;;;2.03;0.63;;;;;;;;;;4949410;28;20102;-79
2022/02/06 17:19:21;;;;;;;0.73;0.57;;;8.60;99.90;;;;;;4961988;28;20451;-78
2022/02/06 17:21:47;;;;;;;1.15;0.50;;;;;;;;;;4945092;28;20099;-78
2022/02/06 17:24:15;;;;;;;1.52;0.50;;;8.60;99.90;;;;;;4949187;28;20027;-78